Terminal Aerodrome Forecast
Issued by NWS Sterling, VA

Current Version | Previous Version | Graphics & Text | Print | Product List | Glossary On
Versions: 1 2 3 4 5 6 7 8 9 10 11 12 13 14 15 16 17 18 19 20 21 22 23 24 25
000
FTUS41 KLWX 271733 AAB
TAFIAD
TAF AMD
KIAD 271733Z 2718/2824 34004KT P6SM BKN070
     FM272000 27004KT P6SM BKN070
     FM280200 00000KT P6SM BKN060
     FM281200 20006KT P6SM BKN060=

USA.gov is the U.S. government's official web portal to all federal, state and local government web resources and services.